createdAt,value
2022-12-29T00:00:53.587Z,19.35
2022-12-29T00:03:56.128Z,27.33
2022-12-29T00:06:58.675Z,17.63
2022-12-29T00:10:00.866Z,19.60
2022-12-29T00:13:21.549Z,24.95
2022-12-29T00:16:24.005Z,23.90
2022-12-29T00:19:55.470Z,21.65
2022-12-29T00:23:17.077Z,22.95
2022-12-29T00:26:39.180Z,20.75
2022-12-29T00:30:00.128Z,24.45
2022-12-29T00:33:20.484Z,21.45
2022-12-29T00:36:37.058Z,23.60
2022-12-29T00:39:59.797Z,26.10
2022-12-29T00:43:20.353Z,24.75
2022-12-29T00:46:22.476Z,18.98
2022-12-29T00:49:34.472Z,20.17
2022-12-29T00:52:36.835Z,22.10
2022-12-29T00:55:39.564Z,23.15
2022-12-29T00:58:41.715Z,19.63
2022-12-29T01:01:47.371Z,23.13
2022-12-29T01:04:50.988Z,26.00
2022-12-29T01:07:53.028Z,20.48
2022-12-29T01:11:12.365Z,21.50
2022-12-29T01:14:14.732Z,26.23
2022-12-29T01:17:16.961Z,20.75
2022-12-29T01:20:19.307Z,28.92
2022-12-29T01:23:21.382Z,25.55
2022-12-29T01:26:23.496Z,21.73
2022-12-29T01:29:27.669Z,17.95
2022-12-29T01:32:29.734Z,21.98
2022-12-29T01:35:32.815Z,18.23
2022-12-29T01:38:37.189Z,21.40
2022-12-29T01:41:42.419Z,27.65
2022-12-29T01:44:59.445Z,23.08
2022-12-29T01:48:06.392Z,17.27
2022-12-29T01:51:08.710Z,32.35
2022-12-29T01:54:20.931Z,22.92
2022-12-29T01:57:29.440Z,19.42
2022-12-29T02:00:31.839Z,20.10
2022-12-29T02:03:35.559Z,23.02
2022-12-29T02:06:53.098Z,23.25
2022-12-29T02:09:57.194Z,26.33
2022-12-29T02:13:00.340Z,23.55
2022-12-29T02:16:02.489Z,17.52
2022-12-29T02:19:50.402Z,20.30
2022-12-29T02:23:17.261Z,19.45
2022-12-29T02:26:26.074Z,20.98
2022-12-29T02:29:41.335Z,19.87
2022-12-29T02:32:52.673Z,19.00
2022-12-29T02:36:09.063Z,22.15
2022-12-29T02:39:33.130Z,20.23
2022-12-29T02:42:54.690Z,21.48
2022-12-29T02:46:05.918Z,25.40
2022-12-29T02:49:16.464Z,17.45
2022-12-29T02:52:29.399Z,20.30
2022-12-29T02:55:31.454Z,19.08
2022-12-29T02:58:33.848Z,19.33
2022-12-29T03:02:13.435Z,26.17
2022-12-29T03:05:42.675Z,20.95
2022-12-29T03:08:53.665Z,18.13
2022-12-29T03:12:15.728Z,22.83
2022-12-29T03:16:01.392Z,25.63
2022-12-29T03:19:20.480Z,20.92
2022-12-29T03:25:46.987Z,27.23
2022-12-29T03:28:54.298Z,21.90
2022-12-29T03:32:01.255Z,37.22
2022-12-29T03:35:05.312Z,19.88
2022-12-29T03:38:34.857Z,24.67
2022-12-29T03:41:38.099Z,26.25
2022-12-29T03:44:42.591Z,26.95
2022-12-29T03:47:46.021Z,25.30
2022-12-29T03:50:48.752Z,25.20
2022-12-29T03:53:51.417Z,26.77
2022-12-29T03:56:53.524Z,22.10
2022-12-29T04:00:07.995Z,25.70
2022-12-29T04:03:19.631Z,24.58
2022-12-29T04:06:23.250Z,29.67
2022-12-29T04:09:32.436Z,25.67
2022-12-29T04:12:35.142Z,23.02
2022-12-29T04:15:38.215Z,24.92
2022-12-29T04:18:40.495Z,21.23
2022-12-29T04:21:42.937Z,26.40
2022-12-29T04:24:45.248Z,22.17
2022-12-29T04:27:47.895Z,22.60
2022-12-29T04:31:08.789Z,27.08
2022-12-29T04:34:14.617Z,27.45
2022-12-29T04:37:16.818Z,21.02
2022-12-29T04:40:19.621Z,22.52
2022-12-29T04:43:23.199Z,23.55
2022-12-29T04:46:48.121Z,27.30
2022-12-29T04:50:05.742Z,25.63
2022-12-29T04:53:18.020Z,25.77
2022-12-29T04:56:21.367Z,30.80
2022-12-29T04:59:24.168Z,34.15
2022-12-29T05:02:29.942Z,22.23
2022-12-29T05:05:32.700Z,21.42
2022-12-29T05:08:35.700Z,25.60
2022-12-29T05:11:38.989Z,28.77
2022-12-29T05:14:41.570Z,32.45
2022-12-29T05:17:43.726Z,26.77
2022-12-29T05:20:48.415Z,25.55
2022-12-29T05:23:50.932Z,25.60
2022-12-29T05:26:53.433Z,26.33
2022-12-29T05:30:15.030Z,34.33
2022-12-29T05:33:18.662Z,25.67
2022-12-29T05:36:21.067Z,37.85
2022-12-29T05:39:33.583Z,27.20
2022-12-29T05:42:38.605Z,34.20
2022-12-29T05:45:51.299Z,28.58
2022-12-29T05:49:20.381Z,23.20
2022-12-29T05:52:32.762Z,24.88
2022-12-29T05:55:36.131Z,30.30
2022-12-29T05:58:38.548Z,29.63
2022-12-29T06:01:41.569Z,33.60
2022-12-29T06:04:43.797Z,31.23
2022-12-29T06:07:46.954Z,30.27
2022-12-29T06:10:51.766Z,30.50
2022-12-29T06:13:54.184Z,34.47
2022-12-29T06:16:56.433Z,31.90
2022-12-29T06:19:59.781Z,30.08
2022-12-29T06:23:02.131Z,32.67
2022-12-29T06:26:05.398Z,29.02
2022-12-29T06:29:09.740Z,31.13
2022-12-29T06:32:12.317Z,26.13
2022-12-29T06:35:19.651Z,32.80
2022-12-29T06:38:26.999Z,28.40
2022-12-29T06:41:32.328Z,36.53
2022-12-29T06:44:49.480Z,32.08
2022-12-29T06:47:51.539Z,33.92
2022-12-29T06:50:54.789Z,30.67
2022-12-29T06:53:57.202Z,32.00
2022-12-29T06:57:00.586Z,35.03
2022-12-29T07:00:04.268Z,41.53
2022-12-29T07:03:06.590Z,41.00
2022-12-29T07:06:08.729Z,44.05
2022-12-29T07:09:11.308Z,39.58
2022-12-29T07:12:13.488Z,48.08
2022-12-29T07:15:16.343Z,39.33
2022-12-29T07:18:18.591Z,47.75
2022-12-29T07:21:20.927Z,35.13
2022-12-29T07:24:23.055Z,34.45
2022-12-29T07:27:25.063Z,36.80
2022-12-29T07:30:27.666Z,32.60
2022-12-29T07:33:30.795Z,43.17
2022-12-29T07:36:34.881Z,46.83
2022-12-29T07:39:37.064Z,46.38
2022-12-29T07:42:39.430Z,53.40
2022-12-29T07:45:44.234Z,52.13
2022-12-29T07:48:46.392Z,49.35
2022-12-29T07:51:51.068Z,36.78
2022-12-29T07:54:53.493Z,55.92
2022-12-29T07:57:56.467Z,42.78
2022-12-29T08:00:58.918Z,37.75
2022-12-29T08:04:01.298Z,32.35
2022-12-29T08:07:04.187Z,36.10
2022-12-29T08:10:07.007Z,33.60
2022-12-29T08:13:09.198Z,30.80
2022-12-29T08:16:11.407Z,27.23
2022-12-29T08:19:19.905Z,23.67
2022-12-29T08:22:22.077Z,21.80
2022-12-29T08:25:24.277Z,18.83
2022-12-29T08:28:26.972Z,20.17
2022-12-29T08:31:29.689Z,27.25
2022-12-29T08:34:32.960Z,19.90
2022-12-29T08:37:35.216Z,20.65
2022-12-29T08:40:37.603Z,29.10
2022-12-29T08:43:39.925Z,19.92
2022-12-29T08:46:42.305Z,32.65
2022-12-29T08:49:44.373Z,28.98
2022-12-29T08:52:46.559Z,27.48
2022-12-29T08:56:04.024Z,27.13
2022-12-29T08:59:11.893Z,25.15
2022-12-29T09:02:20.325Z,26.80
2022-12-29T09:05:26.609Z,32.67
2022-12-29T09:08:29.056Z,18.50
2022-12-29T09:11:31.277Z,19.77
2022-12-29T09:14:33.544Z,24.80
2022-12-29T09:17:45.682Z,29.63
2022-12-29T09:20:48.606Z,22.42
2022-12-29T09:23:51.549Z,26.17
2022-12-29T09:26:53.476Z,28.98
2022-12-29T09:29:55.549Z,22.95
2022-12-29T09:32:58.340Z,27.60
2022-12-29T09:36:00.593Z,23.25
2022-12-29T09:39:02.665Z,24.50
2022-12-29T09:42:10.368Z,24.10
2022-12-29T09:45:20.162Z,20.50
2022-12-29T09:48:28.541Z,26.60
2022-12-29T09:51:32.637Z,23.40
2022-12-29T09:54:43.470Z,27.17
2022-12-29T09:58:12.425Z,26.77
2022-12-29T10:01:35.454Z,19.10
2022-12-29T10:04:45.448Z,23.38
2022-12-29T10:08:15.679Z,21.65
2022-12-29T10:11:19.490Z,24.77
2022-12-29T10:14:38.388Z,22.15
2022-12-29T10:27:15.021Z,21.05
2022-12-29T10:30:17.527Z,19.73
2022-12-29T10:33:37.591Z,24.63
2022-12-29T10:36:50.538Z,27.23
2022-12-29T10:39:54.521Z,27.38
2022-12-29T10:47:32.363Z,61.85
2022-12-29T10:50:35.060Z,31.13
2022-12-29T10:53:46.408Z,25.10
2022-12-29T10:57:26.970Z,30.75
2022-12-29T11:00:31.170Z,37.05
2022-12-29T11:03:38.913Z,24.52
2022-12-29T11:11:33.403Z,81.80
2022-12-29T11:18:14.536Z,26.40
2022-12-29T11:21:31.951Z,33.17
2022-12-29T11:24:34.947Z,23.50
2022-12-29T11:27:37.027Z,21.77
2022-12-29T11:30:39.559Z,19.52
2022-12-29T11:33:41.909Z,17.67
2022-12-29T11:36:44.090Z,20.73
2022-12-29T11:39:58.748Z,24.02
2022-12-29T11:43:05.873Z,20.27
2022-12-29T11:46:14.918Z,16.67
2022-12-29T11:49:24.940Z,23.63
2022-12-29T11:52:34.300Z,26.45
2022-12-29T11:55:36.417Z,28.40
2022-12-29T11:58:39.804Z,41.78
2022-12-29T12:01:44.323Z,47.28
2022-12-29T12:04:50.431Z,32.60
2022-12-29T12:08:11.709Z,28.92
2022-12-29T12:11:25.470Z,25.30
2022-12-29T12:14:44.946Z,27.23
2022-12-29T12:18:33.423Z,21.05
2022-12-29T12:21:46.039Z,22.75
2022-12-29T12:25:13.917Z,27.13
2022-12-29T12:28:27.072Z,24.80
2022-12-29T12:31:43.337Z,24.83
2022-12-29T12:34:48.783Z,26.38
2022-12-29T12:38:19.846Z,24.48
2022-12-29T12:41:47.493Z,25.73
2022-12-29T12:45:13.203Z,26.10
2022-12-29T12:48:42.450Z,19.45
2022-12-29T12:52:08.912Z,26.90
2022-12-29T12:55:35.232Z,27.42
2022-12-29T12:58:58.258Z,25.20
2022-12-29T13:02:22.228Z,22.85
2022-12-29T13:05:36.492Z,22.38
2022-12-29T13:09:12.482Z,26.13
2022-12-29T13:12:20.292Z,19.30
2022-12-29T13:15:45.363Z,28.15
2022-12-29T13:19:11.472Z,20.52
2022-12-29T13:22:40.050Z,18.90
2022-12-29T13:25:54.746Z,33.00
2022-12-29T13:29:18.544Z,24.33
2022-12-29T13:32:33.730Z,23.60
2022-12-29T13:35:47.028Z,28.65
2022-12-29T13:38:57.218Z,21.08
2022-12-29T13:42:01.674Z,20.92
2022-12-29T13:45:08.212Z,26.60
2022-12-29T13:48:26.492Z,24.00
2022-12-29T13:51:30.209Z,29.70
2022-12-29T13:54:32.488Z,25.40
2022-12-29T13:58:00.983Z,27.90
2022-12-29T14:01:39.257Z,26.80
2022-12-29T14:05:01.738Z,32.13
2022-12-29T14:08:07.563Z,32.25
2022-12-29T14:11:15.489Z,30.00
2022-12-29T14:14:22.669Z,34.75
2022-12-29T14:17:25.058Z,38.25
2022-12-29T14:20:27.436Z,36.03
2022-12-29T14:23:37.260Z,40.20
2022-12-29T14:26:39.327Z,36.47
2022-12-29T14:29:47.241Z,25.42
2022-12-29T14:33:14.233Z,33.80
2022-12-29T14:36:20.706Z,32.53
2022-12-29T14:39:34.620Z,27.27
2022-12-29T14:42:41.533Z,29.88
2022-12-29T14:45:44.108Z,28.40
2022-12-29T14:48:46.447Z,32.42
2022-12-29T14:51:50.107Z,34.72
2022-12-29T14:55:19.004Z,32.28
2022-12-29T14:58:58.389Z,92.32
2022-12-29T15:02:07.385Z,54.90
2022-12-29T15:05:29.365Z,39.55
2022-12-29T15:08:39.951Z,40.53
2022-12-29T15:11:45.214Z,32.13
2022-12-29T15:14:58.067Z,30.77
2022-12-29T15:18:15.540Z,26.48
2022-12-29T15:21:26.291Z,30.65
2022-12-29T15:24:37.965Z,30.35
2022-12-29T15:31:06.987Z,28.75
2022-12-29T15:34:14.828Z,36.38
2022-12-29T15:37:24.864Z,37.28
2022-12-29T15:40:32.638Z,44.13
2022-12-29T15:43:49.878Z,43.38
2022-12-29T15:46:53.240Z,41.15
2022-12-29T15:50:36.513Z,45.80
2022-12-29T15:53:39.116Z,48.20
2022-12-29T15:56:42.346Z,41.00
2022-12-29T15:59:52.291Z,33.83
2022-12-29T16:02:56.681Z,37.10
2022-12-29T16:06:12.334Z,64.75
2022-12-29T16:09:20.234Z,61.15
2022-12-29T16:12:28.223Z,38.17
2022-12-29T16:15:30.739Z,37.05
2022-12-29T16:18:38.751Z,37.20
2022-12-29T16:21:43.851Z,31.38
2022-12-29T16:24:47.310Z,36.28
2022-12-29T16:27:50.552Z,40.33
2022-12-29T16:31:25.793Z,36.72
2022-12-29T16:34:46.296Z,44.35
2022-12-29T16:37:49.070Z,38.25
2022-12-29T16:41:04.827Z,41.60
2022-12-29T16:44:30.579Z,41.35
2022-12-29T16:47:32.659Z,31.83
2022-12-29T16:50:38.827Z,37.88
2022-12-29T16:53:43.099Z,52.10
2022-12-29T16:56:47.112Z,37.58
2022-12-29T16:59:52.909Z,44.20
2022-12-29T17:02:58.513Z,31.95
2022-12-29T17:06:00.757Z,29.85
2022-12-29T17:09:27.784Z,27.27
2022-12-29T17:12:33.521Z,35.28
2022-12-29T17:15:36.638Z,35.13
2022-12-29T17:22:26.186Z,33.30
2022-12-29T17:25:49.429Z,50.42
2022-12-29T17:29:07.992Z,30.10
2022-12-29T17:32:17.753Z,39.38
2022-12-29T17:35:22.248Z,34.10
2022-12-29T17:38:48.998Z,42.33
2022-12-29T17:41:53.864Z,33.90
2022-12-29T17:48:40.242Z,39.33
2022-12-29T17:53:00.833Z,44.00
2022-12-29T18:05:43.322Z,40.03
2022-12-29T18:09:50.456Z,49.65
2022-12-29T18:13:15.816Z,53.40
2022-12-29T18:17:26.334Z,63.97
2022-12-29T18:20:30.749Z,58.03
2022-12-29T18:23:37.040Z,30.23
2022-12-29T18:26:49.089Z,37.58
2022-12-29T18:33:58.924Z,35.97
2022-12-29T18:37:03.085Z,33.95
2022-12-29T18:40:05.902Z,40.35
2022-12-29T18:43:55.213Z,41.40
2022-12-29T18:46:57.923Z,36.03
2022-12-29T18:50:00.000Z,35.17
2022-12-29T18:53:04.133Z,48.67
2022-12-29T18:56:07.703Z,52.58
2022-12-29T18:59:09.815Z,53.60
2022-12-29T19:02:17.799Z,56.35
2022-12-29T19:05:26.019Z,43.67
2022-12-29T19:08:28.247Z,56.47
2022-12-29T19:11:30.342Z,48.80
2022-12-29T19:14:32.551Z,52.08
2022-12-29T19:17:37.261Z,58.08
2022-12-29T19:20:42.868Z,55.08
2022-12-29T19:23:45.254Z,54.33
2022-12-29T19:26:49.603Z,40.97
2022-12-29T19:29:51.616Z,63.33
2022-12-29T19:32:57.865Z,57.58
2022-12-29T19:36:02.602Z,54.78
2022-12-29T19:39:04.881Z,56.55
2022-12-29T19:42:09.441Z,58.20
2022-12-29T19:45:12.109Z,54.83
2022-12-29T19:48:19.146Z,50.83
2022-12-29T19:51:25.606Z,53.55
2022-12-29T19:54:30.111Z,54.75
2022-12-29T19:57:32.687Z,52.40
2022-12-29T20:00:34.883Z,51.60
2022-12-29T20:03:39.618Z,45.35
2022-12-29T20:06:44.118Z,49.40
2022-12-29T20:09:47.755Z,57.35
2022-12-29T20:12:50.350Z,49.50
2022-12-29T20:15:58.241Z,54.15
2022-12-29T20:19:00.376Z,47.72
2022-12-29T20:22:06.744Z,54.40
2022-12-29T20:25:43.622Z,61.08
2022-12-29T20:28:33.037Z,41.55
2022-12-29T20:31:39.022Z,51.35
2022-12-29T20:34:43.166Z,50.35
2022-12-29T20:37:45.219Z,48.80
2022-12-29T20:40:47.275Z,47.33
2022-12-29T20:43:50.044Z,51.13
2022-12-29T20:46:52.602Z,47.50
2022-12-29T20:49:57.022Z,47.60
2022-12-29T20:52:59.933Z,49.13
2022-12-29T20:56:05.257Z,54.08
2022-12-29T20:59:26.834Z,49.20
2022-12-29T21:02:36.863Z,49.03
2022-12-29T21:05:41.185Z,56.25
2022-12-29T21:09:10.985Z,58.38
2022-12-29T21:12:24.395Z,67.40
2022-12-29T21:20:25.019Z,59.33
2022-12-29T21:23:29.144Z,58.17
2022-12-29T21:26:36.098Z,46.78
2022-12-29T21:29:45.237Z,57.47
2022-12-29T21:32:49.485Z,52.00
2022-12-29T21:36:09.342Z,57.75
2022-12-29T21:39:13.733Z,43.70
2022-12-29T21:42:18.588Z,64.35
2022-12-29T21:45:26.775Z,51.42
2022-12-29T21:48:30.318Z,49.92
2022-12-29T21:51:54.141Z,47.92
2022-12-29T21:55:40.694Z,58.65
2022-12-29T21:59:04.365Z,49.65
2022-12-29T22:02:38.941Z,45.83
2022-12-29T22:06:03.174Z,43.50
2022-12-29T22:09:23.404Z,46.63
2022-12-29T22:12:46.605Z,46.85
2022-12-29T22:15:53.627Z,51.13
2022-12-29T22:19:04.603Z,55.78
2022-12-29T22:22:09.171Z,55.33
2022-12-29T22:25:11.408Z,40.15
2022-12-29T22:28:13.474Z,55.08
2022-12-29T22:31:45.556Z,51.58
2022-12-29T22:34:51.044Z,42.58
2022-12-29T22:37:53.454Z,50.30
2022-12-29T22:40:59.746Z,46.20
2022-12-29T22:44:02.217Z,45.45
2022-12-29T22:47:04.478Z,45.28
2022-12-29T22:50:06.972Z,51.75
2022-12-29T22:53:09.330Z,51.63
2022-12-29T22:56:14.288Z,46.72
2022-12-29T22:59:16.687Z,48.85
2022-12-29T23:02:19.376Z,51.28
2022-12-29T23:05:22.606Z,48.58
2022-12-29T23:08:25.258Z,51.80
2022-12-29T23:11:28.453Z,42.55
2022-12-29T23:14:30.793Z,49.65
2022-12-29T23:17:33.273Z,47.58
2022-12-29T23:20:37.933Z,53.88
2022-12-29T23:23:56.188Z,47.60
2022-12-29T23:26:58.368Z,53.90
2022-12-29T23:30:00.375Z,52.42
2022-12-29T23:33:02.645Z,48.33
2022-12-29T23:36:05.518Z,44.60
2022-12-29T23:39:11.056Z,43.90
2022-12-29T23:42:13.112Z,49.20
2022-12-29T23:45:15.394Z,60.65
2022-12-29T23:48:17.480Z,55.00
2022-12-29T23:51:19.837Z,54.40
2022-12-29T23:54:21.926Z,47.35
2022-12-29T23:57:24.010Z,51.50
